Main page
Satellite images 15-day forecastsClimateMarine weather Cyclones Lightning AirportsFAQ Newsletter About
Weather : Europe Africa North America South America Asia Australia-Oceania Others
Languages Contact

Gdańsk, Poland

Lech Wałęsa

latitude: 54-23N, longitude: 018-28E, elevation: 135 m


METAR: EPGD 240900Z 16007KT 130V200 9999 FEW030 04/M02 Q1027
TAF: EPGD 240640Z 2406/2506 16006KT 9999 BKN030

Time: 11:32 (09:32 UTC)

Current weather observation

The report was made 32 minutes ago, at 09:00 UTC
Wind 7 kt from the South/Southeast, varying between Southeast and South/Southwest
Temperature 4°C
Humidity 65%
Pressure 1027 hPa
Visibility 10 km or more
Few clouds at a height of 3000 ft

Change units

Forecast

The report was made 2 hours and 52 minutes ago, at 06:40 UTC
Forecast valid from 24 at 06 UTC to 25 at 06 UTC
Wind 6 kt from the South/Southeast
Visibility 10 km or more
Broken clouds at a height of 3000 ft
The information on this site is subject to a disclaimer
Weather : Europe Africa North America South America Asia Australia-Oceania Others
Satellite images 15-day forecastsClimateMarine weather Cyclones Lightning AirportsFAQ Languages Contact Newsletter About